Time;durP1;ratioP1;P1;durP2;ratioP2;P2;SDS_P1;SDS_P2;PMS_P1;PMS_P2;Temp;Humidity;BMP_temperature;BMP_pressure;BME280_temperature;BME280_humidity;BME280_pressure;Samples;Min_cycle;Max_cycle;Signal;HPM_P1;HPM_P2
2023/02/17 00:00:21;;;;;;;;;;;21.40;58.50;;;;;;1528852;76;1243;-58
2023/02/17 00:02:23;;;;;;;;;;;21.40;58.40;;;;;;1530254;76;747;-58
2023/02/17 00:04:27;;;;;;;;;;;21.30;58.50;;;;;;1527551;76;745;-59
2023/02/17 00:06:31;;;;;;;;;;;21.40;59.00;;;;;;1523584;76;616;-58
2023/02/17 00:08:33;;;;;;;;;;;21.30;59.20;;;;;;1529787;76;1556;-58
2023/02/17 00:10:34;;;;;;;;;;;21.20;59.10;;;;;;1519677;76;1952;-59
2023/02/17 00:12:36;;;;;;;;;;;21.10;59.20;;;;;;1531779;75;820;-59
2023/02/17 00:14:39;;;;;;;;;;;21.10;59.20;;;;;;1523946;76;925;-58
2023/02/17 00:16:41;;;;;;;;;;;21.10;59.60;;;;;;1527049;76;669;-59
2023/02/17 00:18:43;;;;;;;;;;;21.10;59.60;;;;;;1525139;76;813;-59
2023/02/17 00:20:45;;;;;;;;;;;21.10;59.50;;;;;;1524910;76;1096;-58
2023/02/17 00:22:46;;;;;;;;;;;21.10;59.50;;;;;;1526219;76;1506;-59
2023/02/17 00:24:48;;;;;;;;;;;21.10;59.50;;;;;;1527111;76;774;-59
2023/02/17 00:26:50;;;;;;;;;;;21.10;59.50;;;;;;1527489;76;682;-58
2023/02/17 00:28:52;;;;;;;;;;;21.20;59.30;;;;;;1529960;76;677;-59
2023/02/17 00:30:54;;;;;;;;;;;21.20;59.10;;;;;;1524187;76;1946;-59
2023/02/17 00:32:56;;;;;;;;;;;21.30;59.10;;;;;;1527642;76;757;-60
2023/02/17 00:34:58;;;;;;;;;;;21.30;59.00;;;;;;1532382;76;1465;-60
2023/02/17 00:36:59;;;;;;;;;;;21.20;58.90;;;;;;1523882;76;737;-59
2023/02/17 00:39:01;;;;;;;;;;;21.30;58.90;;;;;;1520062;76;778;-59
2023/02/17 00:41:03;;;;;;;;;;;21.30;58.90;;;;;;1526214;76;1149;-59
2023/02/17 00:43:05;;;;;;;;;;;21.30;58.80;;;;;;1527550;76;756;-59
2023/02/17 00:45:07;;;;;;;;;;;21.30;59.40;;;;;;1520793;76;675;-58
2023/02/17 00:47:09;;;;;;;;;;;21.20;59.50;;;;;;1553717;76;695;-58
2023/02/17 00:49:18;;;;;;;;;;;21.20;59.30;;;;;;1537592;76;1556;-60
2023/02/17 00:51:20;;;;;;;;;;;21.20;59.10;;;;;;1531343;76;1952;-59
2023/02/17 00:53:22;;;;;;;;;;;21.20;58.90;;;;;;1533558;75;921;-60
2023/02/17 00:55:25;;;;;;;;;;;21.30;58.90;;;;;;1524375;76;702;-58
2023/02/17 00:57:31;;;;;;;;;;;21.30;58.80;;;;;;1533672;76;703;-59
2023/02/17 00:59:30;;;;;;;;;;;21.30;58.70;;;;;;1543031;76;1521;-60
2023/02/17 01:01:32;;;;;;;;;;;21.30;58.70;;;;;;1547951;76;1122;-59
2023/02/17 01:03:34;;;;;;;;;;;21.30;58.70;;;;;;1539039;76;1530;-59
2023/02/17 01:05:42;;;;;;;;;;;21.30;59.30;;;;;;1537669;76;706;-58
2023/02/17 01:07:44;;;;;;;;;;;21.20;59.10;;;;;;1550754;76;785;-59
2023/02/17 01:09:46;;;;;;;;;;;21.10;59.10;;;;;;1534251;76;1098;-59
2023/02/17 01:11:48;;;;;;;;;;;21.10;59.30;;;;;;1534091;76;1920;-61
2023/02/17 01:13:50;;;;;;;;;;;21.20;59.40;;;;;;1536041;76;800;-59
2023/02/17 01:15:52;;;;;;;;;;;21.10;59.30;;;;;;1532936;76;725;-59
2023/02/17 01:17:54;;;;;;;;;;;21.10;59.30;;;;;;1545882;76;1555;-59
2023/02/17 01:19:56;;;;;;;;;;;21.10;59.40;;;;;;1545449;76;1095;-60
2023/02/17 01:21:58;;;;;;;;;;;21.10;59.30;;;;;;1536902;76;751;-59
2023/02/17 01:24:01;;;;;;;;;;;21.10;59.30;;;;;;1541281;76;581;-59
2023/02/17 01:26:04;;;;;;;;;;;21.10;59.40;;;;;;1540533;76;669;-59
2023/02/17 01:28:05;;;;;;;;;;;21.10;59.30;;;;;;1536955;76;712;-59
2023/02/17 01:30:08;;;;;;;;;;;21.10;59.30;;;;;;1535702;76;1138;-59
2023/02/17 01:32:09;;;;;;;;;;;21.10;59.70;;;;;;1551591;76;1925;-59
2023/02/17 01:34:11;;;;;;;;;;;21.00;59.30;;;;;;1534452;76;781;-59
2023/02/17 01:36:14;;;;;;;;;;;21.20;59.20;;;;;;1548151;76;741;-58
2023/02/17 01:38:16;;;;;;;;;;;21.20;59.20;;;;;;1537464;76;751;-59
2023/02/17 01:40:17;;;;;;;;;;;21.20;59.30;;;;;;1538437;76;1123;-58
2023/02/17 01:42:22;;;;;;;;;;;21.20;59.10;;;;;;1541228;76;799;-59
2023/02/17 01:44:24;;;;;;;;;;;21.20;59.00;;;;;;1543877;76;734;-59
2023/02/17 01:46:26;;;;;;;;;;;21.20;58.90;;;;;;1546601;76;1519;-58
2023/02/17 01:48:28;;;;;;;;;;;21.20;58.80;;;;;;1539611;76;724;-59
2023/02/17 01:50:31;;;;;;;;;;;21.20;58.90;;;;;;1545844;76;1940;-59
2023/02/17 01:52:33;;;;;;;;;;;21.20;58.80;;;;;;1541784;76;729;-59
2023/02/17 01:54:36;;;;;;;;;;;21.30;58.90;;;;;;1538503;76;690;-59
2023/02/17 01:56:39;;;;;;;;;;;21.30;58.90;;;;;;1537024;76;1707;-58
2023/02/17 01:58:43;;;;;;;;;;;21.20;59.20;;;;;;1535826;76;679;-58
2023/02/17 02:00:44;;;;;;;;;;;21.20;59.00;;;;;;1542485;76;2005;-59
2023/02/17 02:02:47;;;;;;;;;;;21.20;58.90;;;;;;1540804;76;671;-59
2023/02/17 02:04:49;;;;;;;;;;;21.20;58.90;;;;;;1538575;76;783;-58
2023/02/17 02:06:51;;;;;;;;;;;21.20;58.90;;;;;;1534458;76;785;-59
2023/02/17 02:08:54;;;;;;;;;;;21.20;58.80;;;;;;1545448;76;814;-57
2023/02/17 02:10:56;;;;;;;;;;;21.20;58.90;;;;;;1534212;76;1947;-59
2023/02/17 02:12:58;;;;;;;;;;;21.20;58.90;;;;;;1539421;76;778;-60
2023/02/17 02:15:10;;;;;;;;;;;21.20;58.90;;;;;;1539774;76;1364;-58
2023/02/17 02:17:25;;;;;;;;;;;21.20;58.70;;;;;;1540910;76;779;-59
2023/02/17 02:19:35;;;;;;;;;;;21.30;58.80;;;;;;1542593;76;721;-59
2023/02/17 02:21:41;;;;;;;;;;;21.20;58.70;;;;;;1543634;76;1140;-58
2023/02/17 02:24:00;;;;;;;;;;;21.20;59.60;;;;;;1539714;76;791;-59
2023/02/17 02:26:19;;;;;;;;;;;21.10;59.10;;;;;;1540207;76;1748;-60
2023/02/17 02:28:37;;;;;;;;;;;21.10;59.00;;;;;;1545032;76;1856;-59
2023/02/17 02:30:47;;;;;;;;;;;21.20;58.90;;;;;;1538807;76;1948;-58
2023/02/17 02:32:50;;;;;;;;;;;21.20;58.80;;;;;;1541232;76;1957;-59
2023/02/17 02:34:57;;;;;;;;;;;21.10;59.00;;;;;;1548565;76;745;-60
2023/02/17 02:37:00;;;;;;;;;;;21.10;59.00;;;;;;1544599;76;1066;-59
2023/02/17 02:39:04;;;;;;;;;;;21.20;58.90;;;;;;1540422;76;737;-59
2023/02/17 02:41:07;;;;;;;;;;;21.20;58.80;;;;;;1548926;76;1155;-59
2023/02/17 02:43:09;;;;;;;;;;;21.20;58.70;;;;;;1535086;76;2014;-59
2023/02/17 02:45:11;;;;;;;;;;;21.20;58.70;;;;;;1552985;76;826;-58
2023/02/17 02:47:32;;;;;;;;;;;21.20;58.70;;;;;;1540615;76;757;-59
2023/02/17 02:49:35;;;;;;;;;;;21.10;58.90;;;;;;1536671;76;715;-59
2023/02/17 02:51:49;;;;;;;;;;;21.10;58.80;;;;;;1534855;76;1948;-59
2023/02/17 02:54:01;;;;;;;;;;;21.10;59.00;;;;;;1535716;76;781;-59
2023/02/17 02:56:20;;;;;;;;;;;21.10;59.10;;;;;;1534945;76;1853;-59
2023/02/17 02:58:24;;;;;;;;;;;21.10;59.10;;;;;;1534424;76;685;-59
2023/02/17 03:00:36;;;;;;;;;;;21.20;59.00;;;;;;1536812;76;1115;-59
2023/02/17 03:02:41;;;;;;;;;;;21.10;58.90;;;;;;1534171;76;656;-59
2023/02/17 03:04:47;;;;;;;;;;;21.10;58.90;;;;;;1535898;76;2161;-60
2023/02/17 03:07:03;;;;;;;;;;;21.10;60.60;;;;;;1541772;76;1688;-58
2023/02/17 03:09:06;;;;;;;;;;;21.00;59.90;;;;;;1539604;76;756;-58
2023/02/17 03:11:08;;;;;;;;;;;20.90;60.00;;;;;;1534780;76;1936;-59
2023/02/17 03:13:10;;;;;;;;;;;20.80;59.80;;;;;;1534226;76;758;-60
2023/02/17 03:15:30;;;;;;;;;;;20.80;59.70;;;;;;1537163;76;640;-59
2023/02/17 03:17:32;;;;;;;;;;;20.90;59.80;;;;;;1541394;76;672;-59
2023/02/17 03:19:34;;;;;;;;;;;20.90;59.60;;;;;;1534957;76;874;-59
2023/02/17 03:21:39;;;;;;;;;;;20.90;59.60;;;;;;1535546;76;1099;-59
2023/02/17 03:23:41;;;;;;;;;;;20.90;59.70;;;;;;1534842;76;751;-59
2023/02/17 03:25:44;;;;;;;;;;;20.90;59.50;;;;;;1535219;76;797;-59
2023/02/17 03:27:45;;;;;;;;;;;21.00;59.40;;;;;;1539559;76;745;-59
2023/02/17 03:29:47;;;;;;;;;;;21.00;59.30;;;;;;1538423;76;1134;-60
2023/02/17 03:31:49;;;;;;;;;;;21.00;59.20;;;;;;1536023;76;1960;-59
2023/02/17 03:33:51;;;;;;;;;;;21.00;59.20;;;;;;1535337;76;780;-59
2023/02/17 03:35:53;;;;;;;;;;;21.00;59.20;;;;;;1535098;76;677;-59
2023/02/17 03:37:55;;;;;;;;;;;21.00;59.20;;;;;;1535167;76;1574;-59
2023/02/17 03:39:57;;;;;;;;;;;21.00;59.20;;;;;;1539671;76;1135;-60
2023/02/17 03:41:58;;;;;;;;;;;21.00;59.30;;;;;;1537552;76;673;-58
2023/02/17 03:44:00;;;;;;;;;;;20.90;59.10;;;;;;1539321;76;805;-60
2023/02/17 03:46:02;;;;;;;;;;;21.00;59.10;;;;;;1534747;76;704;-58
2023/02/17 03:48:04;;;;;;;;;;;21.00;59.00;;;;;;1543458;76;752;-59
2023/02/17 03:50:07;;;;;;;;;;;21.00;59.00;;;;;;1535308;76;1118;-59
2023/02/17 03:52:09;;;;;;;;;;;21.00;58.90;;;;;;1534736;76;1929;-59
2023/02/17 03:54:11;;;;;;;;;;;21.00;59.00;;;;;;1535067;76;857;-58
2023/02/17 03:56:13;;;;;;;;;;;21.00;58.90;;;;;;1535201;76;714;-59
2023/02/17 03:58:15;;;;;;;;;;;21.00;58.90;;;;;;1535474;76;739;-59
2023/02/17 04:00:17;;;;;;;;;;;21.00;58.90;;;;;;1535035;76;1119;-59
2023/02/17 04:02:18;;;;;;;;;;;21.00;58.90;;;;;;1540545;76;1339;-58
2023/02/17 04:04:20;;;;;;;;;;;21.00;58.80;;;;;;1543834;76;721;-59
2023/02/17 04:06:22;;;;;;;;;;;21.00;58.90;;;;;;1539357;76;1628;-59
2023/02/17 04:08:24;;;;;;;;;;;21.00;58.90;;;;;;1537534;76;640;-62
2023/02/17 04:10:26;;;;;;;;;;;21.00;58.90;;;;;;1547681;76;1205;-61
2023/02/17 04:12:28;;;;;;;;;;;21.00;58.90;;;;;;1544775;76;1935;-62
2023/02/17 04:14:30;;;;;;;;;;;21.00;58.90;;;;;;1542912;76;771;-61
2023/02/17 04:16:32;;;;;;;;;;;21.00;58.90;;;;;;1550158;76;675;-61
2023/02/17 04:18:33;;;;;;;;;;;21.00;59.00;;;;;;1544623;76;755;-61
2023/02/17 04:20:35;;;;;;;;;;;21.00;59.00;;;;;;1541652;76;1586;-61
2023/02/17 04:22:37;;;;;;;;;;;21.00;59.00;;;;;;1537423;76;909;-61
2023/02/17 04:24:39;;;;;;;;;;;21.00;59.00;;;;;;1540674;76;605;-61
2023/02/17 04:26:41;;;;;;;;;;;21.00;59.00;;;;;;1540462;76;692;-60
2023/02/17 04:28:43;;;;;;;;;;;21.00;59.10;;;;;;1535655;76;683;-61
2023/02/17 04:30:45;;;;;;;;;;;21.00;59.20;;;;;;1537869;76;1143;-60
2023/02/17 04:32:47;;;;;;;;;;;21.00;59.20;;;;;;1537584;76;1952;-60
2023/02/17 04:34:49;;;;;;;;;;;21.00;59.20;;;;;;1540713;76;1396;-60
2023/02/17 04:36:51;;;;;;;;;;;21.00;59.20;;;;;;1538949;76;713;-61
2023/02/17 04:38:53;;;;;;;;;;;21.10;59.30;;;;;;1546245;76;751;-61
2023/02/17 04:40:55;;;;;;;;;;;21.10;59.30;;;;;;1541016;76;1119;-61
2023/02/17 04:42:57;;;;;;;;;;;21.00;59.20;;;;;;1544850;76;640;-60
2023/02/17 04:44:58;;;;;;;;;;;21.00;59.20;;;;;;1540434;76;803;-61
2023/02/17 04:47:00;;;;;;;;;;;21.00;59.20;;;;;;1547320;76;689;-65
2023/02/17 04:49:02;;;;;;;;;;;21.10;59.20;;;;;;1533232;76;1550;-60
2023/02/17 04:51:04;;;;;;;;;;;21.00;59.10;;;;;;1539942;76;1138;-60
2023/02/17 04:53:07;;;;;;;;;;;21.10;59.20;;;;;;1534519;76;1926;-60
2023/02/17 04:55:08;;;;;;;;;;;21.10;59.20;;;;;;1534438;76;742;-60
2023/02/17 04:57:10;;;;;;;;;;;21.00;59.10;;;;;;1542394;76;737;-61
2023/02/17 04:59:12;;;;;;;;;;;21.00;59.10;;;;;;1538872;76;930;-60
2023/02/17 05:01:14;;;;;;;;;;;21.00;59.00;;;;;;1543737;76;1086;-60
2023/02/17 05:03:16;;;;;;;;;;;21.00;59.00;;;;;;1547379;76;1569;-60
2023/02/17 05:05:19;;;;;;;;;;;21.00;59.00;;;;;;1540464;76;688;-59
2023/02/17 05:07:21;;;;;;;;;;;21.00;59.00;;;;;;1543752;76;735;-60
2023/02/17 05:09:23;;;;;;;;;;;21.10;59.10;;;;;;1542761;76;701;-60
2023/02/17 05:11:25;;;;;;;;;;;21.00;59.00;;;;;;1543570;76;1192;-60
2023/02/17 05:13:27;;;;;;;;;;;21.00;59.00;;;;;;1532305;76;1932;-60
2023/02/17 05:15:29;;;;;;;;;;;21.00;59.00;;;;;;1539357;76;684;-59
2023/02/17 05:17:31;;;;;;;;;;;21.00;59.00;;;;;;1535303;76;1570;-59
2023/02/17 05:19:32;;;;;;;;;;;21.00;59.00;;;;;;1533918;76;758;-60
2023/02/17 05:21:34;;;;;;;;;;;21.00;59.10;;;;;;1535691;76;1111;-59
2023/02/17 05:23:40;;;;;;;;;;;21.00;59.10;;;;;;1546607;76;739;-59
2023/02/17 05:25:40;;;;;;;;;;;21.00;59.20;;;;;;1536694;76;1690;-60
2023/02/17 05:27:42;;;;;;;;;;;21.00;59.10;;;;;;1541103;76;801;-60
2023/02/17 05:29:43;;;;;;;;;;;21.00;59.20;;;;;;1544776;76;673;-60
2023/02/17 05:31:45;;;;;;;;;;;21.00;59.30;;;;;;1539529;76;1948;-59
2023/02/17 05:33:47;;;;;;;;;;;21.00;59.30;;;;;;1542844;76;750;-58
2023/02/17 05:35:49;;;;;;;;;;;21.00;59.70;;;;;;1539075;76;716;-58
2023/02/17 05:37:51;;;;;;;;;;;20.90;60.40;;;;;;1539536;76;789;-59
2023/02/17 05:39:53;;;;;;;;;;;20.80;60.40;;;;;;1540657;76;1227;-58
2023/02/17 05:41:55;;;;;;;;;;;20.80;60.60;;;;;;1545319;76;785;-60
2023/02/17 05:43:57;;;;;;;;;;;20.90;60.40;;;;;;1539714;76;708;-59
2023/02/17 05:46:02;;;;;;;;;;;21.00;60.20;;;;;;1536400;76;1513;-59
2023/02/17 05:48:04;;;;;;;;;;;21.00;60.10;;;;;;1542222;76;709;-59
2023/02/17 05:50:07;;;;;;;;;;;21.00;60.00;;;;;;1544151;76;1164;-58
2023/02/17 05:52:08;;;;;;;;;;;21.00;60.00;;;;;;1544477;76;1937;-58
2023/02/17 05:54:10;;;;;;;;;;;21.00;60.00;;;;;;1541041;76;736;-59
2023/02/17 05:56:12;;;;;;;;;;;20.90;60.20;;;;;;1542346;76;781;-59
2023/02/17 05:58:14;;;;;;;;;;;20.90;60.30;;;;;;1538411;76;715;-59
2023/02/17 06:00:16;;;;;;;;;;;20.90;60.40;;;;;;1538605;76;1514;-58
2023/02/17 06:02:18;;;;;;;;;;;20.90;60.60;;;;;;1532595;76;1074;-59
2023/02/17 06:04:20;;;;;;;;;;;20.80;60.50;;;;;;1538805;76;667;-59
2023/02/17 06:06:22;;;;;;;;;;;20.90;60.50;;;;;;1540793;76;733;-60
2023/02/17 06:08:24;;;;;;;;;;;21.00;60.30;;;;;;1546243;76;748;-61
2023/02/17 06:10:26;;;;;;;;;;;21.00;60.20;;;;;;1545767;76;1199;-62
2023/02/17 06:12:27;;;;;;;;;;;20.90;60.00;;;;;;1538489;76;1942;-64
2023/02/17 06:14:29;;;;;;;;;;;21.00;59.80;;;;;;1538752;76;715;-64
2023/02/17 06:16:31;;;;;;;;;;;20.90;59.60;;;;;;1535662;76;750;-63
2023/02/17 06:18:33;;;;;;;;;;;21.00;59.50;;;;;;1535045;76;794;-62
2023/02/17 06:20:35;;;;;;;;;;;21.00;59.40;;;;;;1535303;76;1112;-63
2023/02/17 06:22:37;;;;;;;;;;;21.00;59.30;;;;;;1538086;76;765;-63
2023/02/17 06:24:39;;;;;;;;;;;21.00;59.10;;;;;;1543705;76;666;-62
2023/02/17 06:26:41;;;;;;;;;;;21.00;59.00;;;;;;1549721;76;1331;-63
2023/02/17 06:28:43;;;;;;;;;;;21.00;58.90;;;;;;1540374;76;700;-65
2023/02/17 06:30:44;;;;;;;;;;;21.00;58.70;;;;;;1541988;76;1141;-67
2023/02/17 06:32:47;;;;;;;;;;;21.00;58.90;;;;;;1536639;76;1932;-65
2023/02/17 06:34:48;;;;;;;;;;;20.90;59.00;;;;;;1538947;76;743;-63
2023/02/17 06:36:50;;;;;;;;;;;20.90;59.20;;;;;;1533823;76;804;-63
2023/02/17 06:38:52;;;;;;;;;;;21.00;59.20;;;;;;1544944;76;892;-63
2023/02/17 06:40:54;;;;;;;;;;;21.00;59.10;;;;;;1542767;76;1511;-63
2023/02/17 06:42:56;;;;;;;;;;;21.00;59.00;;;;;;1540447;76;918;-63
2023/02/17 06:44:59;;;;;;;;;;;20.90;58.80;;;;;;1534546;76;706;-65
2023/02/17 06:47:01;;;;;;;;;;;21.00;58.70;;;;;;1533556;76;726;-63
2023/02/17 06:49:03;;;;;;;;;;;21.10;58.70;;;;;;1534287;76;733;-63
2023/02/17 06:51:05;;;;;;;;;;;20.90;58.50;;;;;;1537643;76;1131;-63
2023/02/17 06:53:07;;;;;;;;;;;21.00;58.60;;;;;;1533186;76;1948;-64
2023/02/17 06:55:09;;;;;;;;;;;21.00;58.50;;;;;;1540737;76;1522;-63
2023/02/17 06:57:11;;;;;;;;;;;21.00;58.40;;;;;;1544849;76;716;-63
2023/02/17 06:59:12;;;;;;;;;;;21.00;58.40;;;;;;1535244;76;701;-62
2023/02/17 07:01:19;;;;;;;;;;;21.00;58.30;;;;;;1533256;76;1138;-62
2023/02/17 07:03:21;;;;;;;;;;;21.00;58.20;;;;;;1536948;76;1876;-63
2023/02/17 07:05:23;;;;;;;;;;;21.00;58.20;;;;;;1540762;76;729;-63
2023/02/17 07:07:25;;;;;;;;;;;21.10;58.30;;;;;;1539670;76;773;-63
2023/02/17 07:09:27;;;;;;;;;;;21.00;57.70;;;;;;1540516;76;1459;-63
2023/02/17 07:11:33;;;;;;;;;;;21.00;57.80;;;;;;1539922;76;1196;-63
2023/02/17 07:13:32;;;;;;;;;;;21.00;57.70;;;;;;1537756;76;1933;-62
2023/02/17 07:15:34;;;;;;;;;;;20.90;57.70;;;;;;1535155;76;797;-63
2023/02/17 07:17:36;;;;;;;;;;;21.00;57.60;;;;;;1534982;76;752;-63
2023/02/17 07:19:38;;;;;;;;;;;21.00;57.60;;;;;;1535103;76;690;-63
2023/02/17 07:21:40;;;;;;;;;;;21.00;57.60;;;;;;1547088;76;1115;-63
2023/02/17 07:23:42;;;;;;;;;;;20.90;57.40;;;;;;1537971;76;1588;-63
2023/02/17 07:25:44;;;;;;;;;;;21.00;57.40;;;;;;1535266;76;789;-63
2023/02/17 07:27:46;;;;;;;;;;;20.90;57.30;;;;;;1537266;76;716;-63
2023/02/17 07:29:47;;;;;;;;;;;20.90;57.60;;;;;;1546285;76;1145;-63
2023/02/17 07:31:49;;;;;;;;;;;21.00;57.50;;;;;;1536263;76;754;-63
2023/02/17 07:33:51;;;;;;;;;;;21.00;57.40;;;;;;1535269;76;1951;-63
2023/02/17 07:35:53;;;;;;;;;;;21.00;57.40;;;;;;1535177;76;710;-63
2023/02/17 07:37:57;;;;;;;;;;;20.90;57.30;;;;;;1536243;76;1601;-63
2023/02/17 07:39:59;;;;;;;;;;;21.00;57.30;;;;;;1544820;76;1147;-63
2023/02/17 07:42:03;;;;;;;;;;;20.90;57.30;;;;;;1535022;76;698;-63
2023/02/17 07:44:04;;;;;;;;;;;21.00;57.20;;;;;;1536428;76;1740;-63
2023/02/17 07:46:06;;;;;;;;;;;20.90;57.20;;;;;;1543688;76;765;-63
2023/02/17 07:48:08;;;;;;;;;;;21.00;57.20;;;;;;1557012;76;745;-66
2023/02/17 07:50:10;;;;;;;;;;;21.00;57.10;;;;;;1545035;76;1144;-63
2023/02/17 07:52:11;;;;;;;;;;;20.90;57.20;;;;;;1547239;76;1565;-63
2023/02/17 07:54:13;;;;;;;;;;;21.00;58.30;;;;;;1538036;76;1940;-59
2023/02/17 07:56:16;;;;;;;;;;;21.00;57.80;;;;;;1538741;76;711;-60
2023/02/17 07:58:17;;;;;;;;;;;21.00;58.30;;;;;;1539628;76;718;-68
2023/02/17 08:00:19;;;;;;;;;;;21.00;58.20;;;;;;1539247;76;1123;-60
2023/02/17 08:02:21;;;;;;;;;;;21.00;57.80;;;;;;1536005;76;730;-60
2023/02/17 08:04:24;;;;;;;;;;;21.00;58.20;;;;;;1536877;76;1054;-60
2023/02/17 08:06:26;;;;;;;;;;;20.90;58.20;;;;;;1535483;76;1566;-61
2023/02/17 08:13:20;;;;;;;;;;;20.90;58.20;;;;;;1542871;76;1936;-59
2023/02/17 08:15:21;;;;;;;;;;;20.90;57.80;;;;;;1545117;76;718;-61
2023/02/17 08:17:23;;;;;;;;;;;20.90;58.20;;;;;;1538702;76;672;-60
2023/02/17 08:19:25;;;;;;;;;;;20.90;58.30;;;;;;1534475;76;1565;-60
2023/02/17 08:21:27;;;;;;;;;;;20.90;58.20;;;;;;1537014;76;1209;-63
2023/02/17 08:23:29;;;;;;;;;;;21.00;58.20;;;;;;1545863;76;753;-60
2023/02/17 08:25:32;;;;;;;;;;;21.00;58.20;;;;;;1548357;76;782;-60
2023/02/17 08:27:34;;;;;;;;;;;21.00;58.20;;;;;;1542764;76;792;-60
2023/02/17 08:29:36;;;;;;;;;;;21.00;58.20;;;;;;1541302;76;754;-60
2023/02/17 08:31:38;;;;;;;;;;;21.00;58.20;;;;;;1546896;76;1144;-60
2023/02/17 08:33:40;;;;;;;;;;;21.00;57.80;;;;;;1533895;76;1942;-60
2023/02/17 08:35:42;;;;;;;;;;;21.00;57.70;;;;;;1536082;76;765;-60
2023/02/17 08:37:43;;;;;;;;;;;21.00;57.70;;;;;;1536127;76;732;-60
2023/02/17 08:39:45;;;;;;;;;;;20.90;57.70;;;;;;1540652;76;769;-60
2023/02/17 08:41:47;;;;;;;;;;;20.90;57.70;;;;;;1538994;76;861;-60
2023/02/17 08:43:49;;;;;;;;;;;21.00;57.70;;;;;;1545305;76;723;-60
2023/02/17 08:45:51;;;;;;;;;;;20.90;57.60;;;;;;1542839;76;786;-60
2023/02/17 08:47:53;;;;;;;;;;;20.90;57.60;;;;;;1540947;76;1555;-59
2023/02/17 08:49:55;;;;;;;;;;;21.00;57.60;;;;;;1544277;76;1130;-60
2023/02/17 08:51:57;;;;;;;;;;;21.00;57.60;;;;;;1543277;76;803;-60
2023/02/17 08:53:59;;;;;;;;;;;20.90;57.60;;;;;;1545288;76;1955;-63
2023/02/17 08:56:01;;;;;;;;;;;20.90;57.60;;;;;;1547480;76;730;-64
2023/02/17 08:58:03;;;;;;;;;;;20.90;57.70;;;;;;1543089;76;672;-64
2023/02/17 09:00:05;;;;;;;;;;;20.90;57.80;;;;;;1542524;76;1149;-64
2023/02/17 09:02:07;;;;;;;;;;;20.90;57.70;;;;;;1535654;76;1533;-63
2023/02/17 09:04:09;;;;;;;;;;;20.90;57.70;;;;;;1536479;76;1440;-67
2023/02/17 09:06:12;;;;;;;;;;;20.90;57.60;;;;;;1537649;76;739;-63
2023/02/17 09:08:14;;;;;;;;;;;20.90;57.70;;;;;;1534558;76;702;-64
2023/02/17 09:10:15;;;;;;;;;;;20.90;57.60;;;;;;1536533;76;1182;-63
2023/02/17 09:12:17;;;;;;;;;;;20.90;57.60;;;;;;1536541;76;838;-64
2023/02/17 09:14:22;;;;;;;;;;;20.90;57.60;;;;;;1539832;76;1959;-64
2023/02/17 09:16:23;;;;;;;;;;;20.90;57.60;;;;;;1535752;76;1679;-64
2023/02/17 09:18:25;;;;;;;;;;;20.90;57.60;;;;;;1540960;76;687;-63
2023/02/17 09:20:27;;;;;;;;;;;20.90;57.60;;;;;;1540149;76;1200;-63
2023/02/17 09:22:29;;;;;;;;;;;20.90;57.60;;;;;;1538445;76;703;-63
2023/02/17 09:24:32;;;;;;;;;;;20.90;57.60;;;;;;1536791;76;725;-63
2023/02/17 09:26:34;;;;;;;;;;;20.90;57.70;;;;;;1535209;76;2016;-63
2023/02/17 09:28:36;;;;;;;;;;;20.90;57.70;;;;;;1538310;76;792;-63
2023/02/17 09:30:38;;;;;;;;;;;20.90;57.80;;;;;;1544345;76;1552;-63
2023/02/17 09:32:41;;;;;;;;;;;20.90;57.80;;;;;;1535746;76;683;-65
2023/02/17 09:34:49;;;;;;;;;;;20.80;57.60;;;;;;1536766;76;1938;-63
2023/02/17 09:36:51;;;;;;;;;;;20.90;57.70;;;;;;1560196;76;697;-68
2023/02/17 09:38:53;;;;;;;;;;;20.90;58.30;;;;;;1534705;76;769;-63
2023/02/17 09:40:55;;;;;;;;;;;20.80;58.20;;;;;;1534648;76;1138;-63
2023/02/17 09:42:57;;;;;;;;;;;20.90;58.30;;;;;;1535539;76;732;-64
2023/02/17 09:45:06;;;;;;;;;;;20.90;58.20;;;;;;1538922;76;1568;-64
2023/02/17 09:47:13;;;;;;;;;;;20.80;58.10;;;;;;1536263;76;662;-64
2023/02/17 09:49:17;;;;;;;;;;;20.80;57.60;;;;;;1542346;76;765;-63
2023/02/17 09:51:29;;;;;;;;;;;20.90;58.20;;;;;;1547117;76;1164;-64
2023/02/17 09:53:36;;;;;;;;;;;20.80;57.60;;;;;;1537123;76;1905;-63
2023/02/17 09:55:44;;;;;;;;;;;20.80;57.60;;;;;;1534762;76;791;-63
2023/02/17 09:58:05;;;;;;;;;;;20.80;57.60;;;;;;1521395;77;1538;-63
2023/02/17 10:00:08;;;;;;;;;;;20.80;58.20;;;;;;1535799;76;1248;-63
2023/02/17 10:02:14;;;;;;;;;;;20.70;58.60;;;;;;1534499;76;669;-67
2023/02/17 10:04:18;;;;;;;;;;;20.70;58.80;;;;;;1537323;76;1107;-63
2023/02/17 10:06:21;;;;;;;;;;;20.80;58.70;;;;;;1543976;76;674;-63
2023/02/17 10:08:23;;;;;;;;;;;20.90;59.30;;;;;;1552492;76;819;-63
2023/02/17 10:10:27;;;;;;;;;;;20.70;59.10;;;;;;1529429;77;1225;-64
2023/02/17 10:12:36;;;;;;;;;;;20.70;59.00;;;;;;1548390;76;1527;-64
2023/02/17 10:14:44;;;;;;;;;;;20.80;59.00;;;;;;1546184;76;1928;-65
2023/02/17 10:16:50;;;;;;;;;;;20.80;58.90;;;;;;1544375;76;707;-63
2023/02/17 10:18:54;;;;;;;;;;;20.80;58.70;;;;;;1551625;76;656;-63
2023/02/17 10:20:57;;;;;;;;;;;20.90;58.80;;;;;;1542378;76;1205;-63
2023/02/17 10:23:03;;;;;;;;;;;20.80;58.60;;;;;;1545245;76;1859;-66
2023/02/17 10:25:15;;;;;;;;;;;20.90;58.60;;;;;;1544690;76;1042;-64
2023/02/17 10:27:22;;;;;;;;;;;20.90;58.60;;;;;;1544566;76;1515;-64
2023/02/17 10:29:41;;;;;;;;;;;20.90;58.60;;;;;;1543294;76;2265;-64
2023/02/17 10:31:44;;;;;;;;;;;20.90;58.60;;;;;;1550583;76;1084;-67
2023/02/17 10:33:54;;;;;;;;;;;20.90;58.60;;;;;;1543296;76;1904;-64
2023/02/17 10:35:57;;;;;;;;;;;20.80;58.50;;;;;;1504801;76;1083;-64
2023/02/17 10:38:00;;;;;;;;;;;20.90;58.60;;;;;;1556315;76;1655;-63
2023/02/17 10:40:03;;;;;;;;;;;20.80;58.50;;;;;;1542762;76;2136;-64
2023/02/17 10:42:04;;;;;;;;;;;20.80;58.50;;;;;;1543195;76;688;-64
2023/02/17 10:44:08;;;;;;;;;;;20.90;58.50;;;;;;1548281;76;732;-64
2023/02/17 10:46:11;;;;;;;;;;;20.90;58.50;;;;;;1545853;76;728;-63
2023/02/17 10:48:31;;;;;;;;;;;20.80;58.40;;;;;;1547799;75;779;-64
2023/02/17 10:50:33;;;;;;;;;;;20.80;58.40;;;;;;1542903;76;1131;-64
2023/02/17 10:52:37;;;;;;;;;;;20.80;58.30;;;;;;1542732;76;681;-64
2023/02/17 10:54:40;;;;;;;;;;;20.80;58.20;;;;;;1542159;76;1921;-64
2023/02/17 10:56:43;;;;;;;;;;;20.90;58.30;;;;;;1545187;76;709;-64
2023/02/17 10:58:47;;;;;;;;;;;20.90;58.20;;;;;;1547352;76;738;-63
2023/02/17 11:00:49;;;;;;;;;;;20.90;58.20;;;;;;1553657;75;1157;-64
2023/02/17 11:02:51;;;;;;;;;;;20.90;58.20;;;;;;1546478;75;730;-64
2023/02/17 11:04:58;;;;;;;;;;;20.90;58.30;;;;;;1549613;76;1087;-64
2023/02/17 11:06:59;;;;;;;;;;;20.80;58.20;;;;;;1543769;76;1694;-64
2023/02/17 11:09:02;;;;;;;;;;;20.80;58.30;;;;;;1543504;76;1586;-64
2023/02/17 11:11:05;;;;;;;;;;;20.80;58.30;;;;;;1545800;76;1236;-63
2023/02/17 11:13:11;;;;;;;;;;;20.80;58.40;;;;;;1553715;75;1463;-63
2023/02/17 11:15:14;;;;;;;;;;;20.80;58.40;;;;;;1506884;75;1991;-63
2023/02/17 11:17:18;;;;;;;;;;;20.80;58.50;;;;;;1554666;75;1106;-63
2023/02/17 11:19:21;;;;;;;;;;;20.80;58.60;;;;;;1554031;75;1455;-63
2023/02/17 11:21:23;;;;;;;;;;;20.80;58.60;;;;;;1558160;75;1499;-64
2023/02/17 11:23:25;;;;;;;;;;;20.80;58.70;;;;;;1569083;75;1515;-63
2023/02/17 11:25:28;;;;;;;;;;;20.80;58.60;;;;;;1563059;75;1468;-64
2023/02/17 11:27:30;;;;;;;;;;;20.80;58.60;;;;;;1560241;75;1499;-64
2023/02/17 11:29:32;;;;;;;;;;;20.80;58.60;;;;;;1561412;75;1393;-64
2023/02/17 11:31:34;;;;;;;;;;;20.80;58.60;;;;;;1550901;75;1441;-64
2023/02/17 11:33:39;;;;;;;;;;;20.80;58.60;;;;;;1561685;75;1545;-64
2023/02/17 11:35:45;;;;;;;;;;;20.80;58.60;;;;;;1559762;75;1927;-64
2023/02/17 11:37:46;;;;;;;;;;;20.80;58.60;;;;;;1561389;75;1338;-63
2023/02/17 11:39:49;;;;;;;;;;;20.80;58.60;;;;;;1558829;75;1501;-64
2023/02/17 11:41:51;;;;;;;;;;;20.80;58.60;;;;;;1563094;75;1472;-64
2023/02/17 11:44:01;;;;;;;;;;;20.80;58.60;;;;;;1553215;75;1113;-66
2023/02/17 11:46:17;;;;;;;;;;;20.80;58.50;;;;;;1558697;75;1773;-63
2023/02/17 11:48:38;;;;;;;;;;;20.80;58.60;;;;;;1552656;75;1293;-65
2023/02/17 11:50:45;;;;;;;;;;;20.80;58.60;;;;;;1502476;79;1623;-64
2023/02/17 11:52:48;;;;;;;;;;;20.80;58.60;;;;;;1501173;77;1493;-68
2023/02/17 11:55:00;;;;;;;;;;;20.70;58.60;;;;;;1481162;78;1936;-64
2023/02/17 11:57:20;;;;;;;;;;;20.80;58.60;;;;;;1535605;75;1851;-64
2023/02/17 11:59:27;;;;;;;;;;;20.80;58.60;;;;;;1542805;76;1476;-63
2023/02/17 12:01:42;;;;;;;;;;;20.80;58.60;;;;;;1584153;73;1911;-64
2023/02/17 12:04:02;;;;;;;;;;;20.70;58.60;;;;;;1554957;74;1503;-64
2023/02/17 12:06:08;;;;;;;;;;;20.80;58.60;;;;;;1586942;73;1536;-64
2023/02/17 12:08:21;;;;;;;;;;;20.70;58.60;;;;;;1584639;73;1538;-63
2023/02/17 12:10:41;;;;;;;;;;;20.80;58.60;;;;;;1579270;72;1560;-63
2023/02/17 12:12:44;;;;;;;;;;;20.80;58.60;;;;;;1600605;73;1102;-64
2023/02/17 12:14:51;;;;;;;;;;;20.80;58.60;;;;;;1601088;73;1945;-63
2023/02/17 12:17:00;;;;;;;;;;;20.80;58.60;;;;;;1600460;73;1539;-64
2023/02/17 12:19:07;;;;;;;;;;;20.80;58.50;;;;;;1595144;73;2096;-63